Time;durP1;ratioP1;P1;durP2;ratioP2;P2;SDS_P1;SDS_P2;PMS_P1;PMS_P2;Temp;Humidity;BMP_temperature;BMP_pressure;BME280_temperature;BME280_humidity;BME280_pressure;Samples;Min_cycle;Max_cycle;Signal;HPM_P1;HPM_P2
2022/03/17 00:00:59;;;;;;;29.90;26.90;;;11.10;1.00;11.40;101165.00;;;;5083724;28;20531;-76
2022/03/17 00:03:27;;;;;;;31.70;27.67;;;11.10;1.00;11.40;101131.00;;;;5087503;28;20512;-77
2022/03/17 00:05:56;;;;;;;29.73;26.57;;;11.30;1.00;11.40;101171.00;;;;5088588;28;20548;-76
2022/03/17 00:08:26;;;;;;;30.50;27.30;;;11.50;1.00;11.40;101161.00;;;;5083617;28;20478;-77
2022/03/17 00:10:54;;;;;;;32.70;27.20;;;11.20;1.00;11.50;101145.00;;;;5087573;28;20675;-77
2022/03/17 00:13:23;;;;;;;30.30;27.20;;;11.50;1.00;11.40;101160.00;;;;5085826;28;20489;-78
2022/03/17 00:15:51;;;;;;;32.10;28.37;;;11.20;1.00;11.40;101169.00;;;;5087684;28;20476;-78
2022/03/17 00:18:19;;;;;;;30.40;27.20;;;11.20;1.00;11.40;101142.00;;;;5087701;28;20513;-78
2022/03/17 00:20:48;;;;;;;30.53;27.23;;;11.20;1.00;11.40;101148.00;;;;5085288;28;20561;-77
2022/03/17 00:23:16;;;;;;;31.13;27.83;;;11.20;1.00;11.40;101155.00;;;;5084079;28;20442;-78
2022/03/17 00:25:46;;;;;;;30.40;27.20;;;11.30;1.00;11.40;101135.00;;;;5088352;28;20807;-78
2022/03/17 00:28:14;;;;;;;31.13;27.90;;;11.20;1.00;11.50;101130.00;;;;5081286;28;20709;-77
2022/03/17 00:30:43;;;;;;;32.40;28.90;;;11.20;1.00;11.50;101148.00;;;;5085851;28;20455;-75
2022/03/17 00:33:11;;;;;;;33.17;29.60;;;11.20;1.00;11.50;101146.00;;;;5085151;28;20469;-76
2022/03/17 00:35:42;;;;;;;32.40;29.00;;;11.30;1.00;11.50;101150.00;;;;5084879;28;20482;-77
2022/03/17 00:38:14;;;;;;;31.23;27.67;;;11.30;1.00;11.50;101150.00;;;;5083819;28;20499;-74
2022/03/17 00:40:47;;;;;;;32.97;29.47;;;11.30;1.00;11.50;101157.00;;;;5080790;28;20538;-76
2022/03/17 00:43:16;;;;;;;31.77;28.47;;;11.30;1.00;11.50;101155.00;;;;5086926;28;20857;-76
2022/03/17 00:45:47;;;;;;;30.20;27.20;;;11.30;1.00;11.50;101150.00;;;;5080954;28;20459;-76
2022/03/17 00:48:15;;;;;;;30.20;27.10;;;11.30;1.00;11.50;101162.00;;;;5082091;28;20466;-76
2022/03/17 00:50:44;;;;;;;30.90;27.80;;;11.30;1.00;11.40;101173.00;;;;5082791;28;20457;-76
2022/03/17 00:53:12;;;;;;;31.47;28.40;;;11.20;1.00;11.40;101169.00;;;;5073645;28;20538;-76
2022/03/17 00:55:41;;;;;;;34.23;30.53;;;11.20;1.00;11.40;101173.00;;;;5084251;28;20454;-76
2022/03/17 00:58:11;;;;;;;32.37;28.97;;;11.20;1.00;11.50;101150.00;;;;5082579;28;20835;-76
2022/03/17 01:00:40;;;;;;;34.60;31.00;;;11.30;1.00;11.40;101172.00;;;;5080601;28;20953;-76
2022/03/17 01:03:08;;;;;;;33.17;29.67;;;11.20;1.00;11.40;101166.00;;;;5084059;28;20515;-76
2022/03/17 01:05:39;;;;;;;32.43;28.70;;;11.20;1.00;11.40;101155.00;;;;5080246;28;20453;-76
2022/03/17 01:08:07;;;;;;;31.97;28.63;;;11.20;1.00;11.40;101158.00;;;;5083982;28;20480;-76
2022/03/17 01:10:38;;;;;;;33.40;29.87;;;11.40;1.00;11.40;101150.00;;;;5088434;28;20472;-76
2022/03/17 01:13:07;;;;;;;32.57;29.13;;;11.20;1.00;11.40;101162.00;;;;5102267;28;20470;-75
2022/03/17 01:15:36;;;;;;;32.80;29.33;;;11.50;1.00;11.40;101176.00;;;;5099492;28;20455;-75
2022/03/17 01:18:05;;;;;;;35.43;31.90;;;11.20;1.00;11.40;101166.00;;;;5084847;28;20539;-77
2022/03/17 01:20:34;;;;;;;34.00;30.40;;;11.20;1.00;11.50;101151.00;;;;5086762;28;20454;-77
2022/03/17 01:23:04;;;;;;;33.40;29.80;;;11.20;1.00;11.40;101128.00;;;;5086260;28;21387;-77
2022/03/17 01:25:32;;;;;;;32.57;29.27;;;11.20;1.00;11.40;101153.00;;;;5086530;28;20437;-77
2022/03/17 01:28:01;;;;;;;31.90;28.67;;;11.20;1.00;11.50;101138.00;;;;5084261;28;20471;-77
2022/03/17 01:30:29;;;;;;;34.13;30.47;;;11.40;1.00;11.50;101143.00;;;;5081104;28;20836;-77
2022/03/17 01:32:59;;;;;;;33.80;30.30;;;11.30;1.00;11.50;101151.00;;;;5084258;28;20462;-77
2022/03/17 01:35:27;;;;;;;32.20;28.80;;;11.30;1.00;11.50;101143.00;;;;5078737;28;20454;-77
2022/03/17 01:37:56;;;;;;;33.40;29.90;;;11.30;1.00;11.50;101141.00;;;;5085052;28;20472;-77
2022/03/17 01:40:24;;;;;;;32.63;29.33;;;11.60;1.00;11.40;101138.00;;;;5119648;28;20446;-77
2022/03/17 01:42:53;;;;;;;34.33;30.70;;;11.20;1.00;11.40;101138.00;;;;5100722;28;20513;-77
2022/03/17 01:45:21;;;;;;;35.53;31.87;;;11.20;1.00;11.50;101129.00;;;;5104294;28;20925;-76
2022/03/17 01:47:49;;;;;;;33.63;30.13;;;11.20;1.00;11.50;101122.00;;;;5100652;28;20825;-77
2022/03/17 01:50:19;;;;;;;34.13;30.50;;;11.30;1.00;11.50;101131.00;;;;5106435;28;20534;-77
2022/03/17 01:52:48;;;;;;;33.77;30.23;;;11.30;1.00;11.40;101123.00;;;;5090316;28;20481;-76
2022/03/17 01:55:18;;;;;;;34.30;30.73;;;11.30;1.00;11.50;101134.00;;;;5089234;28;20553;-77
2022/03/17 01:57:48;;;;;;;33.37;29.77;;;11.30;1.00;11.40;101137.00;;;;5084571;28;20466;-76
2022/03/17 02:00:19;;;;;;;32.67;29.27;;;11.30;1.00;11.50;101154.00;;;;5083182;28;21000;-77
2022/03/17 02:02:49;;;;;;;32.57;29.10;;;11.30;1.00;11.50;101141.00;;;;5081251;28;20468;-77
2022/03/17 02:05:20;;;;;;;33.37;29.87;;;11.30;1.00;11.50;101135.00;;;;5079724;28;20963;-77
2022/03/17 02:07:50;;;;;;;33.50;30.20;;;11.30;1.00;11.50;101136.00;;;;5078991;28;21063;-77
2022/03/17 02:10:19;;;;;;;35.10;31.30;;;11.30;1.00;11.50;101150.00;;;;5080420;28;20450;-76
2022/03/17 02:15:35;;;;;;;33.27;29.80;;;11.30;1.00;11.50;101152.00;;;;5078950;28;20461;-76
2022/03/17 02:18:07;;;;;;;34.47;30.87;;;11.40;1.00;11.60;101137.00;;;;5076399;28;20907;-76
2022/03/17 02:20:38;;;;;;;33.43;29.53;;;11.40;1.00;11.60;101149.00;;;;5078376;28;20469;-77
2022/03/17 02:25:58;;;;;;;32.87;29.37;;;11.40;1.00;11.50;101142.00;;;;5081907;28;20460;-76
2022/03/17 02:28:27;;;;;;;33.30;29.80;;;11.40;1.00;11.50;101143.00;;;;5078287;28;21015;-77
2022/03/17 02:30:57;;;;;;;35.87;32.30;;;11.40;1.00;11.50;101150.00;;;;5081482;28;20461;-77
2022/03/17 02:33:26;;;;;;;34.80;31.10;;;11.40;1.00;11.60;101155.00;;;;5079189;28;20466;-77
2022/03/17 02:35:54;;;;;;;33.10;29.70;;;11.40;1.00;11.50;101158.00;;;;5081986;28;20457;-77
2022/03/17 02:38:25;;;;;;;34.57;30.97;;;11.40;1.00;11.50;101150.00;;;;5079855;28;20999;-77
2022/03/17 02:40:53;;;;;;;35.50;31.80;;;11.30;1.00;11.50;101141.00;;;;5083504;28;20465;-77
2022/03/17 02:43:22;;;;;;;35.17;31.33;;;11.60;1.00;11.50;101162.00;;;;5083576;28;20464;-77
2022/03/17 02:45:51;;;;;;;34.70;31.20;;;11.30;1.00;11.50;101159.00;;;;5081833;28;20453;-77
2022/03/17 02:48:20;;;;;;;31.50;28.40;;;11.30;1.00;11.50;101147.00;;;;5080146;28;20462;-77
2022/03/17 02:50:48;;;;;;;35.20;31.67;;;11.30;1.00;11.40;101161.00;;;;5075509;28;20458;-77
2022/03/17 02:53:17;;;;;;;33.57;30.07;;;11.30;1.00;11.40;101157.00;;;;5081866;28;20508;-78
2022/03/17 02:55:47;;;;;;;33.97;30.27;;;11.40;1.00;11.40;101164.00;;;;5081156;28;20953;-77
2022/03/17 02:58:15;;;;;;;33.07;29.60;;;11.20;1.00;11.40;101158.00;;;;5080932;28;20480;-77
2022/03/17 03:00:44;;;;;;;33.67;30.10;;;11.20;1.00;11.40;101163.00;;;;5079181;28;20458;-77
2022/03/17 03:03:17;;;;;;;34.13;30.57;;;11.20;1.00;11.40;101164.00;;;;5081187;28;21095;-77
2022/03/17 03:05:46;;;;;;;32.67;29.23;;;11.30;1.00;11.40;101153.00;;;;5071322;28;20481;-77
2022/03/17 03:08:15;;;;;;;35.40;31.57;;;11.20;1.00;11.40;101162.00;;;;5080175;28;20458;-77
2022/03/17 03:10:44;;;;;;;35.20;31.37;;;11.20;1.00;11.30;101137.00;;;;5080047;28;20463;-77
2022/03/17 03:13:14;;;;;;;33.33;29.90;;;11.20;1.00;11.40;101149.00;;;;5081331;28;20961;-77
2022/03/17 03:15:42;;;;;;;31.87;28.57;;;11.20;1.00;11.30;101148.00;;;;5078365;28;20450;-77
2022/03/17 03:18:11;;;;;;;33.13;29.60;;;11.10;1.00;11.30;101138.00;;;;5079066;28;20463;-77
2022/03/17 03:20:39;;;;;;;33.17;29.67;;;11.10;1.00;11.40;101143.00;;;;5081177;28;20454;-77
2022/03/17 03:23:08;;;;;;;32.73;29.37;;;11.20;1.00;11.40;101147.00;;;;5082899;28;21088;-77
2022/03/17 03:25:37;;;;;;;33.13;29.63;;;11.20;1.00;11.30;101133.00;;;;5095641;28;20489;-76
2022/03/17 03:28:06;;;;;;;31.70;28.33;;;11.10;1.00;11.30;101137.00;;;;5093329;28;21156;-76
2022/03/17 03:30:36;;;;;;;34.03;30.50;;;11.10;1.00;11.40;101143.00;;;;5081458;28;20454;-76
2022/03/17 03:33:07;;;;;;;32.87;29.40;;;11.20;1.00;11.30;101140.00;;;;5079850;28;20453;-75
2022/03/17 03:38:22;;;;;;;32.57;29.20;;;11.40;1.00;11.40;101135.00;;;;5079913;28;20481;-75
2022/03/17 03:40:50;;;;;;;33.30;29.83;;;11.10;1.00;11.40;101125.00;;;;5074111;28;21589;-76
2022/03/17 03:43:20;;;;;;;33.70;30.20;;;11.10;1.00;11.30;101132.00;;;;5076163;28;20470;-75
2022/03/17 03:45:50;;;;;;;34.23;29.90;;;11.30;1.00;11.30;101137.00;;;;5072167;28;20458;-76
2022/03/17 03:48:19;;;;;;;32.57;29.03;;;11.10;1.00;11.30;101135.00;;;;5077168;28;20492;-76
2022/03/17 03:50:47;;;;;;;32.27;28.90;;;11.10;1.00;11.30;101149.00;;;;5075270;28;20450;-77
2022/03/17 03:53:15;;;;;;;32.93;29.37;;;11.10;1.00;11.30;101145.00;;;;5078787;28;20557;-76
2022/03/17 03:55:44;;;;;;;33.53;30.00;;;11.10;1.00;11.30;101160.00;;;;5079337;28;20554;-77
2022/03/17 03:58:12;;;;;;;32.90;29.10;;;11.10;1.00;11.30;101168.00;;;;5078115;28;20474;-76
2022/03/17 04:00:41;;;;;;;32.13;28.83;;;11.20;1.00;11.20;101168.00;;;;5078693;28;20828;-75
2022/03/17 04:03:11;;;;;;;31.97;28.53;;;11.20;1.00;11.30;101170.00;;;;5079820;28;20461;-77
2022/03/17 04:05:40;;;;;;;30.67;27.50;;;11.10;1.00;11.30;101171.00;;;;5076473;28;20544;-75
2022/03/17 04:08:08;;;;;;;34.60;28.60;;;11.10;1.00;11.30;101176.00;;;;5067188;28;20473;-76
2022/03/17 04:10:37;;;;;;;32.67;29.23;;;11.10;1.00;11.30;101188.00;;;;5090222;28;20493;-76
2022/03/17 04:13:05;;;;;;;30.50;27.30;;;11.10;1.00;11.20;101185.00;;;;5108142;28;20458;-76
2022/03/17 04:15:34;;;;;;;31.03;27.93;;;11.10;1.00;11.30;101209.00;;;;5093254;28;20443;-76
2022/03/17 04:18:02;;;;;;;32.20;28.90;;;11.10;1.00;11.30;101199.00;;;;5112003;28;20469;-76
2022/03/17 04:20:32;;;;;;;31.27;28.07;;;11.10;1.00;11.30;101206.00;;;;5094882;28;20454;-76
2022/03/17 04:23:01;;;;;;;32.40;27.70;;;11.20;1.00;11.40;101212.00;;;;5083776;28;20455;-76
2022/03/17 04:25:29;;;;;;;32.03;28.37;;;11.20;1.00;11.30;101210.00;;;;5080373;28;20499;-76
2022/03/17 04:27:58;;;;;;;32.40;28.90;;;11.20;1.00;11.40;101211.00;;;;5078390;28;20478;-75
2022/03/17 04:30:26;;;;;;;30.47;27.20;;;11.20;1.00;11.40;101207.00;;;;5079450;28;20466;-76
2022/03/17 04:32:54;;;;;;;31.10;27.83;;;11.20;1.00;11.40;101218.00;;;;5073319;28;20450;-75
2022/03/17 04:35:23;;;;;;;32.20;28.73;;;11.20;1.00;11.30;101182.00;;;;5078754;28;20885;-76
2022/03/17 04:37:52;;;;;;;32.30;28.90;;;11.10;1.00;11.30;101198.00;;;;5078355;28;20481;-76
2022/03/17 04:40:21;;;;;;;32.47;28.97;;;11.10;1.00;11.30;101200.00;;;;5078411;28;20450;-76
2022/03/17 04:42:49;;;;;;;31.60;28.30;;;11.10;1.00;11.30;101210.00;;;;5077600;28;20465;-76
2022/03/17 04:45:18;;;;;;;33.10;29.60;;;11.10;1.00;11.30;101194.00;;;;5079909;28;20464;-76
2022/03/17 04:47:46;;;;;;;29.23;26.23;;;11.10;1.00;11.30;101204.00;;;;5082339;28;20474;-76
2022/03/17 04:50:14;;;;;;;33.30;29.70;;;11.10;1.00;11.20;101214.00;;;;5081755;28;20496;-76
2022/03/17 04:55:30;;;;;;;32.13;28.63;;;11.00;1.00;11.30;101216.00;;;;5083647;28;20466;-76
2022/03/17 04:57:59;;;;;;;32.60;29.10;;;11.00;1.00;11.20;101213.00;;;;5081716;28;20489;-76
2022/03/17 05:00:27;;;;;;;33.07;29.57;;;11.00;1.00;11.10;101203.00;;;;5082844;28;20468;-76
2022/03/17 05:02:55;;;;;;;32.20;28.70;;;10.90;1.00;11.20;101200.00;;;;5081848;28;20893;-76
2022/03/17 05:05:28;;;;;;;30.63;27.50;;;11.10;1.00;11.10;101220.00;;;;5083303;28;20460;-76
2022/03/17 05:07:57;;;;;;;31.90;28.50;;;11.00;1.00;11.20;101235.00;;;;5081620;28;20482;-76
2022/03/17 05:10:28;;;;;;;30.77;27.57;;;10.90;1.00;11.20;101248.00;;;;5082468;28;20450;-76
2022/03/17 05:13:05;;;;;;;33.90;27.97;;;11.00;1.00;11.20;101232.00;;;;5081044;28;20460;-76
2022/03/17 05:15:34;;;;;;;29.33;26.23;;;11.20;1.00;11.20;101237.00;;;;5081730;28;20476;-76
2022/03/17 05:18:04;;;;;;;32.47;29.17;;;11.00;1.00;11.20;101251.00;;;;5081256;28;20584;-76
2022/03/17 05:20:33;;;;;;;30.80;27.50;;;11.00;1.00;11.20;101256.00;;;;5081089;28;20485;-77
2022/03/17 05:23:03;;;;;;;30.97;27.77;;;11.00;1.00;11.20;101227.00;;;;5083243;28;20450;-77
2022/03/17 05:25:32;;;;;;;31.83;28.40;;;11.00;1.00;11.20;101259.00;;;;5083359;28;20442;-77
2022/03/17 05:28:00;;;;;;;31.13;27.80;;;11.00;1.00;11.20;101258.00;;;;5080078;28;20474;-77
2022/03/17 05:30:30;;;;;;;36.47;28.80;;;11.00;1.00;11.20;101280.00;;;;5080381;28;20470;-76
2022/03/17 05:32:59;;;;;;;31.80;28.30;;;10.90;1.00;11.20;101267.00;;;;5083623;28;21471;-76
2022/03/17 05:35:27;;;;;;;31.10;27.63;;;10.90;1.00;11.10;101261.00;;;;5083761;28;20490;-76
2022/03/17 05:37:56;;;;;;;32.73;29.20;;;10.90;1.00;11.10;101283.00;;;;5082837;28;20470;-76
2022/03/17 05:40:25;;;;;;;29.53;26.43;;;10.90;1.00;11.10;101266.00;;;;5083877;28;20442;-76
2022/03/17 05:42:56;;;;;;;34.47;27.53;;;10.90;1.00;11.10;101262.00;;;;5082590;28;20460;-76
2022/03/17 05:45:27;;;;;;;33.23;29.23;;;10.90;1.00;11.10;101253.00;;;;5083920;28;20452;-76
2022/03/17 05:47:59;;;;;;;32.40;28.90;;;10.90;1.00;11.10;101251.00;;;;5084990;28;20478;-76
2022/03/17 05:50:29;;;;;;;31.53;28.20;;;10.90;1.00;11.10;101286.00;;;;5073583;28;20438;-76
2022/03/17 05:52:58;;;;;;;32.03;28.63;;;10.90;1.00;11.20;101282.00;;;;5084814;28;20498;-76
2022/03/17 05:55:27;;;;;;;33.07;29.67;;;10.90;1.00;11.20;101282.00;;;;5082496;28;20474;-77
2022/03/17 05:57:57;;;;;;;33.23;28.80;;;10.90;1.00;11.20;101277.00;;;;5081915;28;20474;-77
2022/03/17 06:00:29;;;;;;;31.37;28.03;;;11.00;1.00;11.10;101279.00;;;;5084898;28;20455;-76
2022/03/17 06:03:00;;;;;;;32.87;28.47;;;10.90;1.00;11.10;101276.00;;;;5089796;28;20989;-77
2022/03/17 06:05:29;;;;;;;34.57;30.87;;;10.90;1.00;11.10;101294.00;;;;5097046;28;20967;-75
2022/03/17 06:08:00;;;;;;;34.30;30.57;;;10.90;1.00;11.20;101293.00;;;;5083198;28;21650;-76
2022/03/17 06:10:32;;;;;;;33.53;29.90;;;10.90;1.00;11.20;101303.00;;;;5087231;28;21109;-76
2022/03/17 06:13:03;;;;;;;34.10;30.47;;;11.00;1.00;11.20;101300.00;;;;5088783;28;20525;-75
2022/03/17 06:15:33;;;;;;;32.60;28.30;;;11.00;1.00;11.10;101308.00;;;;5099988;28;20600;-76
2022/03/17 06:18:06;;;;;;;32.23;28.83;;;10.90;1.00;11.20;101311.00;;;;5086959;28;20466;-76
2022/03/17 06:20:38;;;;;;;32.73;29.40;;;10.90;1.00;11.20;101315.00;;;;5086751;28;20450;-76
2022/03/17 06:23:07;;;;;;;34.73;31.23;;;11.00;1.00;11.20;101307.00;;;;5077574;28;21490;-76
2022/03/17 06:25:37;;;;;;;33.03;29.40;;;10.90;1.00;11.20;101321.00;;;;5083977;28;20450;-76
2022/03/17 06:28:09;;;;;;;35.10;31.40;;;11.00;1.00;11.30;101326.00;;;;5092132;28;20470;-76
2022/03/17 06:30:38;;;;;;;37.20;29.40;;;11.10;1.00;11.40;101334.00;;;;5091336;28;20446;-76
2022/03/17 06:33:08;;;;;;;32.63;29.20;;;11.10;1.00;11.40;101325.00;;;;5087291;28;20462;-77
2022/03/17 06:35:37;;;;;;;32.67;29.17;;;11.20;1.00;11.40;101331.00;;;;5088214;28;20501;-77
2022/03/17 06:38:07;;;;;;;34.23;30.60;;;11.20;1.00;11.40;101334.00;;;;5083980;28;20489;-76
2022/03/17 06:40:37;;;;;;;32.37;28.30;;;11.30;1.00;11.50;101335.00;;;;5088107;28;20551;-76
2022/03/17 06:43:06;;;;;;;33.37;29.80;;;11.30;1.00;11.60;101320.00;;;;5091258;28;20475;-75
2022/03/17 06:45:35;;;;;;;34.90;31.10;;;11.40;1.00;11.50;101329.00;;;;5107273;28;20526;-76
2022/03/17 06:48:04;;;;;;;36.37;30.13;;;11.40;1.00;11.60;101337.00;;;;5109806;28;20475;-77
2022/03/17 06:50:35;;;;;;;32.93;29.43;;;11.40;1.00;11.70;101332.00;;;;5109285;28;20462;-76
2022/03/17 06:53:03;;;;;;;34.00;30.53;;;11.40;1.00;11.80;101352.00;;;;5110779;28;20446;-77
2022/03/17 06:55:33;;;;;;;33.70;30.20;;;11.70;1.00;11.80;101361.00;;;;5112377;28;20490;-76
2022/03/17 06:58:01;;;;;;;32.47;29.17;;;11.60;1.00;11.90;101366.00;;;;5106409;28;20484;-76
2022/03/17 07:00:30;;;;;;;34.17;30.67;;;11.70;1.00;11.90;101350.00;;;;5093161;28;20458;-76
2022/03/17 07:02:59;;;;;;;35.57;28.70;;;11.70;1.00;11.80;101355.00;;;;5085485;28;20844;-77
2022/03/17 07:05:28;;;;;;;35.20;29.53;;;11.70;1.00;11.90;101361.00;;;;5082741;28;20459;-77
2022/03/17 07:07:57;;;;;;;33.53;30.13;;;11.80;1.00;12.00;101365.00;;;;5081117;28;20478;-77
2022/03/17 07:10:27;;;;;;;34.30;30.70;;;11.80;1.00;12.00;101368.00;;;;5081873;28;20912;-77
2022/03/17 07:12:55;;;;;;;34.70;31.00;;;12.00;1.00;12.10;101350.00;;;;5084718;28;20461;-77
2022/03/17 07:15:24;;;;;;;32.80;28.90;;;11.90;1.00;12.20;101371.00;;;;5082634;28;20918;-77
2022/03/17 07:17:52;;;;;;;34.53;30.90;;;12.00;1.00;12.30;101381.00;;;;5082959;28;20484;-77
2022/03/17 07:20:21;;;;;;;34.23;30.50;;;12.10;1.00;12.30;101381.00;;;;5080704;28;20507;-77
2022/03/17 07:22:50;;;;;;;34.17;30.67;;;12.20;1.00;12.40;101398.00;;;;5080561;28;20687;-76
2022/03/17 07:25:21;;;;;;;34.50;30.80;;;12.20;1.00;12.50;101392.00;;;;5082016;28;20453;-75
2022/03/17 07:27:49;;;;;;;35.23;31.47;;;12.30;1.00;12.50;101407.00;;;;5081859;28;21002;-76
2022/03/17 07:30:22;;;;;;;34.73;31.10;;;12.70;1.00;12.60;101404.00;;;;5082267;28;20478;-76
2022/03/17 07:32:55;;;;;;;33.83;29.10;;;12.70;1.00;12.60;101401.00;;;;5081287;28;20779;-76
2022/03/17 07:35:25;;;;;;;35.10;31.50;;;12.50;1.00;12.50;101409.00;;;;5085549;28;20454;-76
2022/03/17 07:37:54;;;;;;;35.70;31.27;;;12.40;1.00;12.60;101407.00;;;;5086389;28;20474;-77
2022/03/17 07:40:24;;;;;;;33.97;30.30;;;12.50;1.00;12.70;101399.00;;;;5081059;28;20537;-77
2022/03/17 07:42:52;;;;;;;38.90;34.40;;;12.60;1.00;12.70;101402.00;;;;5082045;28;20792;-77
2022/03/17 07:45:41;;;;;;;34.53;31.00;;;12.60;1.00;12.70;101414.00;;;;5065668;28;20472;-76
2022/03/17 07:48:18;;;;;;;33.67;29.90;;;12.60;1.00;12.70;101418.00;;;;5080219;28;20467;-77
2022/03/17 07:51:01;;;;;;;35.03;31.23;;;12.60;1.00;12.70;101398.00;;;;5082705;28;20475;-75
2022/03/17 07:53:30;;;;;;;43.80;39.00;;;13.00;1.00;12.70;101408.00;;;;5082701;28;20465;-76
2022/03/17 07:56:01;;;;;;;32.93;29.43;;;12.60;1.00;12.70;101413.00;;;;5073118;28;20489;-76
2022/03/17 07:58:30;;;;;;;35.17;31.57;;;12.60;1.00;12.80;101426.00;;;;5079342;28;20466;-76
2022/03/17 08:01:02;;;;;;;34.67;30.93;;;12.60;1.00;12.80;101414.00;;;;5081961;28;20450;-77
2022/03/17 08:03:30;;;;;;;33.83;30.50;;;12.70;1.00;12.90;101422.00;;;;5077819;28;21496;-77
2022/03/17 08:05:59;;;;;;;36.13;32.07;;;12.70;1.00;12.90;101408.00;;;;5080193;28;20462;-77
2022/03/17 08:08:28;;;;;;;38.90;34.90;;;12.80;1.00;12.90;101424.00;;;;5078800;28;20567;-77
2022/03/17 08:10:57;;;;;;;34.63;31.03;;;12.80;1.00;12.90;101426.00;;;;5079656;28;20468;-75
2022/03/17 08:13:27;;;;;;;35.37;31.60;;;12.80;1.00;13.00;101434.00;;;;5078342;28;20482;-75
2022/03/17 08:15:56;;;;;;;36.53;31.73;;;12.90;1.00;13.10;101426.00;;;;5080414;28;20464;-76
2022/03/17 08:18:24;;;;;;;35.93;30.60;;;13.00;1.00;13.00;101430.00;;;;5076118;28;20524;-76
2022/03/17 08:20:53;;;;;;;35.00;31.27;;;12.90;1.00;13.10;101431.00;;;;5084759;28;20458;-77
2022/03/17 08:23:22;;;;;;;33.77;30.20;;;12.90;1.00;13.20;101432.00;;;;5083638;28;20530;-76
2022/03/17 08:25:51;;;;;;;35.17;31.60;;;13.00;1.00;13.20;101446.00;;;;5083635;28;20545;-76
2022/03/17 08:28:19;;;;;;;37.50;32.20;;;13.10;1.00;13.30;101435.00;;;;5085020;28;20465;-76
2022/03/17 08:30:51;;;;;;;35.40;31.77;;;13.20;1.00;13.30;101445.00;;;;5085713;28;20795;-76
2022/03/17 08:33:20;;;;;;;33.50;30.10;;;13.30;1.00;13.40;101442.00;;;;5075777;28;20450;-76
2022/03/17 08:35:48;;;;;;;35.10;31.33;;;13.30;1.00;13.50;101454.00;;;;5082301;28;20458;-76
2022/03/17 08:38:17;;;;;;;34.37;30.80;;;13.70;1.00;13.60;101463.00;;;;5083553;28;20470;-76
2022/03/17 08:40:45;;;;;;;34.27;30.77;;;13.40;1.00;13.60;101464.00;;;;5082431;28;20572;-76
2022/03/17 08:43:14;;;;;;;35.57;31.87;;;13.50;1.00;13.70;101482.00;;;;5083164;28;20454;-76
2022/03/17 08:51:16;;;;;;;33.80;30.50;;;13.90;1.00;14.10;101471.00;;;;5052680;28;20488;-76
2022/03/17 08:53:45;;;;;;;35.33;31.60;;;14.00;1.00;14.20;101483.00;;;;5084898;28;20530;-76
2022/03/17 08:56:13;;;;;;;33.97;30.47;;;14.20;1.00;14.40;101494.00;;;;5074982;28;20450;-76
2022/03/17 08:58:42;;;;;;;34.37;30.80;;;14.30;1.00;14.50;101480.00;;;;5079855;28;20478;-76
2022/03/17 09:01:10;;;;;;;33.53;30.23;;;14.50;1.00;14.60;101500.00;;;;5082091;28;20445;-76
2022/03/17 09:03:40;;;;;;;34.67;31.13;;;14.60;1.00;14.60;101470.00;;;;5084090;28;20457;-76
2022/03/17 09:06:10;;;;;;;32.57;29.37;;;14.60;1.00;14.60;101501.00;;;;5083661;28;20445;-76
2022/03/17 09:08:42;;;;;;;34.70;31.20;;;14.60;1.00;14.60;101500.00;;;;5098801;28;21050;-75
2022/03/17 09:11:12;;;;;;;33.97;30.57;;;14.70;1.00;14.70;101502.00;;;;5085658;28;20454;-75
2022/03/17 09:13:41;;;;;;;33.63;30.17;;;14.70;1.00;14.70;101500.00;;;;5081404;28;20490;-76
2022/03/17 09:16:09;;;;;;;33.70;30.23;;;14.70;1.00;14.80;101509.00;;;;5081299;28;20454;-75
2022/03/17 09:18:41;;;;;;;37.00;33.30;;;14.80;1.00;14.80;101521.00;;;;5079889;28;20839;-75
2022/03/17 09:21:12;;;;;;;35.77;32.17;;;14.90;1.00;14.90;101512.00;;;;5084832;28;20454;-76
2022/03/17 09:23:40;;;;;;;36.07;32.37;;;14.90;1.00;14.90;101525.00;;;;5082086;28;20442;-77
2022/03/17 09:26:09;;;;;;;36.10;32.40;;;15.00;1.00;15.00;101519.00;;;;5106883;28;20482;-75
2022/03/17 09:28:37;;;;;;;35.20;31.60;;;15.00;1.00;14.90;101526.00;;;;5097117;28;20482;-76
2022/03/17 09:31:05;;;;;;;33.60;30.30;;;15.20;1.00;14.90;101516.00;;;;5105196;28;20533;-76
2022/03/17 09:33:34;;;;;;;35.07;31.40;;;14.90;1.00;14.90;101526.00;;;;5105536;28;20455;-76
2022/03/17 09:36:04;;;;;;;36.83;32.90;;;14.90;1.00;14.90;101520.00;;;;5084186;28;21003;-76
2022/03/17 09:38:32;;;;;;;36.07;32.40;;;14.90;1.00;14.80;101524.00;;;;5086559;28;20564;-76
2022/03/17 09:41:01;;;;;;;34.23;30.80;;;14.80;1.00;14.80;101533.00;;;;5085432;28;20454;-75
2022/03/17 09:43:32;;;;;;;36.43;32.83;;;14.80;1.00;14.80;101528.00;;;;5081107;28;20454;-76
2022/03/17 09:46:01;;;;;;;32.97;29.63;;;14.70;1.00;14.70;101526.00;;;;5080597;28;20572;-77
2022/03/17 09:48:30;;;;;;;36.30;32.57;;;14.70;1.00;14.70;101535.00;;;;5084772;28;20503;-77
2022/03/17 09:51:00;;;;;;;35.60;32.10;;;14.60;1.00;14.70;101549.00;;;;5082779;28;20446;-76
2022/03/17 09:53:31;;;;;;;35.40;31.90;;;14.70;1.00;14.70;101558.00;;;;5080858;28;20481;-76
2022/03/17 09:55:59;;;;;;;35.23;31.80;;;14.70;1.00;14.80;101546.00;;;;5083804;28;20497;-77
2022/03/17 09:58:28;;;;;;;36.13;32.53;;;14.80;1.00;14.90;101540.00;;;;5082298;28;20489;-76
2022/03/17 10:00:59;;;;;;;36.00;32.13;;;14.90;1.00;14.80;101556.00;;;;5081922;28;20458;-76
2022/03/17 10:03:29;;;;;;;35.83;32.20;;;14.80;1.00;14.80;101556.00;;;;5076985;28;20499;-75
2022/03/17 10:05:59;;;;;;;36.60;32.83;;;14.80;1.00;14.80;101562.00;;;;5079500;28;20479;-75
2022/03/17 10:08:27;;;;;;;35.87;32.07;;;14.80;1.00;14.80;101564.00;;;;5081431;28;20482;-76
2022/03/17 10:10:57;;;;;;;37.27;33.27;;;14.80;1.00;14.90;101548.00;;;;5085948;28;20454;-77
2022/03/17 10:13:28;;;;;;;37.40;33.03;;;14.80;1.00;14.90;101571.00;;;;5088140;28;20511;-76
2022/03/17 10:16:10;;;;;;;36.40;32.80;;;14.90;1.00;14.90;101588.00;;;;5084333;28;20450;-76
2022/03/17 10:18:39;;;;;;;37.80;32.23;;;14.90;1.00;14.90;101583.00;;;;5082671;28;20478;-77
2022/03/17 10:21:11;;;;;;;36.70;31.27;;;14.90;1.00;14.90;101590.00;;;;5075465;28;20442;-77
2022/03/17 10:23:49;;;;;;;37.57;33.67;;;14.90;1.00;14.70;101584.00;;;;5082822;28;20454;-77
2022/03/17 10:26:39;;;;;;;33.63;30.13;;;14.80;1.00;14.60;101602.00;;;;5084182;28;20961;-76
2022/03/17 10:29:15;;;;;;;34.90;31.23;;;14.70;1.00;14.70;101595.00;;;;5078438;28;20454;-76
2022/03/17 10:31:59;;;;;;;37.50;33.23;;;14.40;1.00;14.60;101596.00;;;;5083942;28;20559;-78
2022/03/17 10:34:33;;;;;;;43.67;33.03;;;14.60;1.00;14.60;101596.00;;;;5081605;28;20537;-77
2022/03/17 10:37:15;;;;;;;37.00;33.10;;;14.50;1.00;14.50;101613.00;;;;5075604;28;20469;-76
2022/03/17 10:39:45;;;;;;;37.27;33.50;;;14.50;1.00;14.40;101580.00;;;;5073690;28;20492;-76
2022/03/17 10:42:18;;;;;;;36.70;32.70;;;14.50;1.00;14.40;101594.00;;;;5074722;28;20470;-76
2022/03/17 10:44:49;;;;;;;40.00;33.60;;;14.30;1.00;14.40;101617.00;;;;5081664;28;20488;-75
2022/03/17 10:47:29;;;;;;;35.03;31.53;;;14.30;1.00;14.40;101615.00;;;;5077397;28;20501;-75
2022/03/17 10:50:09;;;;;;;36.73;33.07;;;14.40;1.00;14.40;101625.00;;;;5080860;28;20438;-75
2022/03/17 10:53:00;;;;;;;36.33;32.30;;;14.50;1.00;14.40;101620.00;;;;5080410;28;20442;-75
2022/03/17 10:55:30;;;;;;;37.10;33.20;;;14.30;1.00;14.50;101620.00;;;;5073757;28;20822;-76
2022/03/17 10:58:14;;;;;;;35.53;31.73;;;14.40;1.00;14.50;101628.00;;;;5080239;28;21008;-76
2022/03/17 11:00:50;;;;;;;35.93;32.33;;;14.40;1.00;14.50;101628.00;;;;5077819;28;20874;-76
2022/03/17 11:03:36;;;;;;;35.97;32.37;;;14.40;1.00;14.50;101619.00;;;;5081543;28;20468;-79
2022/03/17 11:06:08;;;;;;;38.60;34.60;;;14.40;1.00;14.60;101557.00;;;;5080213;28;20496;-77
2022/03/17 11:08:37;;;;;;;36.20;32.50;;;14.50;1.00;14.60;101634.00;;;;5080014;28;20470;-75